Time;durP1;ratioP1;P1;durP2;ratioP2;P2;SDS_P1;SDS_P2;PMS_P1;PMS_P2;Temp;Humidity;BMP_temperature;BMP_pressure;BME280_temperature;BME280_humidity;BME280_pressure;Samples;Min_cycle;Max_cycle;Signal;HPM_P1;HPM_P2
2022/11/30 00:02:01;;;;;;;40.83;14.57;;;;;;;6.89;100.00;99732.34;5077849;28;20036;-84
2022/11/30 00:04:27;;;;;;;36.30;14.65;;;;;;;7.14;100.00;99735.94;5080234;28;20473;-83
2022/11/30 00:06:56;;;;;;;33.85;14.85;;;;;;;7.21;100.00;99742.16;5067528;28;20024;-81
2022/11/30 00:09:22;;;;;;;38.15;15.13;;;;;;;7.14;100.00;99733.31;5060242;28;20417;-84
2022/11/30 00:11:48;;;;;;;39.05;15.57;;;;;;;7.18;100.00;99726.81;5060890;28;20124;-83
2022/11/30 00:14:14;;;;;;;44.58;15.80;;;;;;;6.91;100.00;99731.22;5062622;28;20111;-82
2022/11/30 00:16:39;;;;;;;47.05;18.00;;;;;;;6.82;100.00;99734.75;5060882;28;20032;-82
2022/11/30 00:19:05;;;;;;;42.13;17.33;;;;;;;6.87;100.00;99729.88;5082898;28;20077;-83
2022/11/30 00:21:31;;;;;;;41.03;15.52;;;;;;;6.91;100.00;99730.41;5079602;28;20024;-83
2022/11/30 00:23:56;;;;;;;44.25;16.23;;;;;;;6.90;100.00;99734.81;5083176;28;20030;-82
2022/11/30 00:26:22;;;;;;;41.97;16.17;;;;;;;7.02;100.00;99734.53;5079278;28;20078;-81
2022/11/30 00:28:48;;;;;;;41.80;16.30;;;;;;;6.98;100.00;99726.22;5066373;28;20045;-81
2022/11/30 00:31:16;;;;;;;46.50;15.90;;;;;;;6.91;100.00;99731.22;5081315;28;20123;-83
2022/11/30 00:33:41;;;;;;;46.28;16.38;;;;;;;6.81;100.00;99735.72;5077968;28;20040;-83
2022/11/30 00:36:10;;;;;;;53.85;17.45;;;;;;;6.84;100.00;99731.03;5080402;28;20040;-82
2022/11/30 00:38:37;;;;;;;41.45;16.52;;;;;;;6.87;100.00;99727.25;5058178;28;20045;-81
2022/11/30 00:41:03;;;;;;;42.15;14.88;;;;;;;7.02;100.00;99737.16;5078647;28;20032;-81
2022/11/30 00:43:29;;;;;;;57.35;18.38;;;;;;;6.83;100.00;99725.94;5080354;28;20433;-81
2022/11/30 00:45:55;;;;;;;42.80;16.65;;;;;;;6.93;100.00;99729.28;5065492;28;20049;-83
2022/11/30 00:48:20;;;;;;;41.75;17.00;;;;;;;6.94;100.00;99717.88;5084404;28;20049;-81
2022/11/30 00:50:48;;;;;;;43.50;17.20;;;;;;;7.00;100.00;99724.28;5081202;28;20077;-82
2022/11/30 00:53:13;;;;;;;42.50;15.13;;;;;;;6.78;100.00;99723.81;5081527;28;20119;-82
2022/11/30 00:55:39;;;;;;;46.83;17.23;;;;;;;6.88;100.00;99721.09;5078953;28;20545;-81
2022/11/30 00:58:06;;;;;;;46.78;17.27;;;;;;;6.98;100.00;99719.19;5064329;28;20489;-82
2022/11/30 01:00:32;;;;;;;46.15;16.35;;;;;;;6.95;100.00;99719.50;5078328;28;20390;-81
2022/11/30 01:03:03;;;;;;;41.95;17.33;;;;;;;7.06;100.00;99718.41;5063512;28;20562;-82
2022/11/30 01:05:29;;;;;;;42.90;15.32;;;;;;;6.83;100.00;99718.09;5070511;28;20025;-81
2022/11/30 01:07:54;;;;;;;44.80;16.60;;;;;;;6.86;100.00;99723.00;5080739;28;20482;-82
2022/11/30 01:10:21;;;;;;;54.80;17.65;;;;;;;6.90;100.00;99720.94;5078216;28;20037;-81
2022/11/30 01:12:48;;;;;;;46.40;15.85;;;;;;;6.81;100.00;99714.84;5060412;28;20086;-82
2022/11/30 01:15:14;;;;;;;41.35;14.88;;;;;;;6.88;100.00;99730.72;5083529;28;20028;-82
2022/11/30 01:17:39;;;;;;;49.40;16.58;;;;;;;7.00;100.00;99725.06;5081021;28;20477;-82
2022/11/30 01:20:06;;;;;;;41.08;15.50;;;;;;;6.88;100.00;99715.88;5080912;28;20036;-82
2022/11/30 01:22:33;;;;;;;45.38;15.60;;;;;;;6.90;100.00;99716.53;5079435;28;20081;-82
2022/11/30 01:24:59;;;;;;;42.78;15.88;;;;;;;7.00;100.00;99717.25;5075199;28;20028;-81
2022/11/30 01:27:25;;;;;;;36.08;15.52;;;;;;;7.00;100.00;99722.47;5064416;28;20032;-83
2022/11/30 01:29:51;;;;;;;43.65;14.98;;;;;;;6.86;100.00;99720.41;5067043;28;20028;-81
2022/11/30 01:32:16;;;;;;;32.17;13.75;;;;;;;6.95;100.00;99722.13;5077886;28;20112;-82
2022/11/30 01:34:42;;;;;;;35.55;13.63;;;;;;;6.96;100.00;99722.91;5061888;28;20043;-86
2022/11/30 01:37:07;;;;;;;37.22;14.15;;;;;;;6.95;100.00;99727.34;5059967;28;20028;-85
2022/11/30 01:39:34;;;;;;;42.47;15.68;;;;;;;6.85;100.00;99739.66;5080367;28;20032;-85
2022/11/30 01:41:59;;;;;;;37.80;14.38;;;;;;;6.91;100.00;99739.06;5074106;28;20074;-83
2022/11/30 01:44:27;;;;;;;37.10;14.90;;;;;;;6.94;100.00;99741.34;5075529;28;20529;-84
2022/11/30 01:47:08;;;;;;;46.38;16.30;;;;;;;7.06;100.00;99736.69;5078961;28;20032;-84
2022/11/30 01:49:38;;;;;;;48.80;16.73;;;;;;;6.92;100.00;99747.69;5072904;28;20047;-83
2022/11/30 01:52:10;;;;;;;37.33;14.43;;;;;;;7.05;100.00;99747.28;5081316;28;20134;-85
2022/11/30 01:54:55;;;;;;;38.10;14.02;;;;;;;7.11;100.00;99751.91;5078528;28;20035;-84
2022/11/30 01:57:27;;;;;;;38.45;13.70;;;;;;;7.12;100.00;99748.31;5073215;28;20036;-85
2022/11/30 01:59:59;;;;;;;35.83;13.57;;;;;;;7.15;100.00;99755.84;5075980;28;20074;-85
2022/11/30 02:02:36;;;;;;;35.67;14.10;;;;;;;7.20;100.00;99750.97;5075825;28;20478;-84
2022/11/30 02:05:02;;;;;;;40.47;15.60;;;;;;;7.10;100.00;99740.63;5081945;28;20750;-86
2022/11/30 02:07:27;;;;;;;39.10;14.90;;;;;;;7.10;100.00;99734.59;5079006;28;20052;-83
2022/11/30 02:09:53;;;;;;;37.67;13.52;;;;;;;7.20;100.00;99745.75;5086188;28;20107;-84
2022/11/30 02:12:32;;;;;;;30.10;12.90;;;;;;;7.31;100.00;99754.28;5083773;28;20115;-84
2022/11/30 02:15:07;;;;;;;35.97;13.75;;;;;;;7.20;100.00;99744.94;5079228;28;20031;-84
2022/11/30 02:17:47;;;;;;;35.03;13.05;;;;;;;7.24;100.00;99752.28;5080518;28;20585;-84
2022/11/30 02:20:35;;;;;;;30.13;13.05;;;;;;;7.32;100.00;99750.72;5080035;28;20043;-84
2022/11/30 02:23:41;;;;;;;32.33;12.65;;;;;;;7.35;100.00;99748.59;5084154;28;20043;-84
2022/11/30 02:26:28;;;;;;;35.03;13.52;;;;;;;7.35;100.00;99758.22;5080890;28;20025;-87
2022/11/30 02:29:03;;;;;;;32.05;12.85;;;;;;;7.33;100.00;99754.97;5078022;28;20138;-84
2022/11/30 02:31:55;;;;;;;31.30;13.20;;;;;;;7.26;100.00;99747.72;5077926;28;20048;-84
2022/11/30 02:34:26;;;;;;;34.95;14.07;;;;;;;7.31;100.00;99754.28;5060750;28;20036;-87
2022/11/30 02:36:54;;;;;;;30.20;12.32;;;;;;;7.16;100.00;99754.88;5085046;28;20036;-85
2022/11/30 02:39:22;;;;;;;31.70;12.95;;;;;;;7.12;100.00;99758.75;5081655;28;20542;-86
2022/11/30 02:41:48;;;;;;;31.13;11.85;;;;;;;6.97;100.00;99755.88;5065760;28;20429;-85
2022/11/30 02:44:15;;;;;;;28.20;10.95;;;;;;;7.06;100.00;99754.13;5084764;28;20042;-86
2022/11/30 02:47:06;;;;;;;26.48;10.85;;;;;;;7.08;100.00;99749.59;5085461;28;20107;-87
2022/11/30 02:49:57;;;;;;;30.23;12.02;;;;;;;7.12;100.00;99749.13;5063679;28;20603;-84
2022/11/30 02:52:25;;;;;;;31.27;12.40;;;;;;;7.18;100.00;99747.69;5061687;28;20505;-87
2022/11/30 02:54:53;;;;;;;33.85;12.60;;;;;;;7.14;100.00;99748.97;5080587;28;20032;-86
2022/11/30 02:57:18;;;;;;;39.42;14.27;;;;;;;7.03;100.00;99750.06;5081170;28;20032;-88
2022/11/30 02:59:44;;;;;;;30.00;11.48;;;;;;;7.13;100.00;99761.19;5083541;28;20060;-84
2022/11/30 03:02:10;;;;;;;37.13;12.90;;;;;;;7.00;100.00;99766.03;5082729;28;20112;-83
2022/11/30 03:04:35;;;;;;;36.03;13.07;;;;;;;7.06;100.00;99759.34;5078622;28;20456;-85
2022/11/30 03:07:01;;;;;;;37.28;13.18;;;;;;;7.06;100.00;99759.34;5080387;28;20060;-84
2022/11/30 03:09:27;;;;;;;35.00;12.55;;;;;;;7.08;100.00;99760.06;5081666;28;20082;-83
2022/11/30 03:11:53;;;;;;;30.00;11.95;;;;;;;7.13;100.00;99755.19;5079379;28;20024;-83
2022/11/30 03:14:18;;;;;;;29.05;12.07;;;;;;;6.87;100.00;99755.97;5080362;28;20036;-85
2022/11/30 03:16:44;;;;;;;32.13;12.30;;;;;;;6.93;100.00;99759.75;5079733;28;20032;-83
2022/11/30 03:19:10;;;;;;;28.60;11.45;;;;;;;7.02;100.00;99751.03;5085638;28;20363;-85
2022/11/30 03:21:35;;;;;;;30.05;11.65;;;;;;;7.01;100.00;99757.22;5084327;28;20533;-84
2022/11/30 03:24:01;;;;;;;29.73;12.57;;;;;;;6.99;100.00;99762.59;5080598;28;20031;-82
2022/11/30 03:26:29;;;;;;;26.73;11.32;;;;;;;6.82;100.00;99764.28;5080266;28;20588;-84
2022/11/30 03:28:55;;;;;;;27.95;11.38;;;;;;;6.64;100.00;99766.91;5082583;28;20024;-82
2022/11/30 03:31:20;;;;;;;21.55;9.57;;;;;;;6.79;100.00;99763.75;5082735;28;20115;-83
2022/11/30 03:33:46;;;;;;;23.38;10.50;;;;;;;6.60;100.00;99764.75;5079585;28;20032;-84
2022/11/30 03:36:12;;;;;;;23.52;9.13;;;;;;;6.63;100.00;99765.25;5077112;28;20970;-83
2022/11/30 03:38:37;;;;;;;23.55;10.05;;;;;;;6.68;100.00;99762.19;5081277;28;20040;-84
2022/11/30 03:41:09;;;;;;;24.73;9.68;;;;;;;6.69;100.00;99776.88;5080156;28;20040;-82
2022/11/30 03:43:35;;;;;;;26.45;10.32;;;;;;;6.59;100.00;99776.97;5082947;28;20343;-83
2022/11/30 03:46:01;;;;;;;29.23;10.02;;;;;;;6.66;100.00;99780.59;5081877;28;20047;-84
2022/11/30 03:48:31;;;;;;;27.13;9.70;;;;;;;6.65;100.00;99781.56;5059727;28;20028;-85
2022/11/30 03:50:57;;;;;;;25.77;10.63;;;;;;;6.78;100.00;99778.59;5086286;28;20032;-86
2022/11/30 03:53:24;;;;;;;25.13;10.45;;;;;;;6.76;100.00;99782.31;5086246;28;20473;-84
2022/11/30 03:56:01;;;;;;;26.63;10.88;;;;;;;6.83;100.00;99785.97;5082999;28;20039;-84
2022/11/30 03:58:34;;;;;;;24.70;10.70;;;;;;;6.80;100.00;99781.88;5082499;28;20028;-85
2022/11/30 04:01:08;;;;;;;29.98;11.15;;;;;;;6.80;100.00;99791.47;5066577;28;20040;-84
2022/11/30 04:03:35;;;;;;;27.63;11.63;;;;;;;6.76;100.00;99787.53;5085296;28;20111;-83
2022/11/30 04:06:02;;;;;;;23.80;11.07;;;;;;;6.72;100.00;99787.84;5078242;28;20481;-83
2022/11/30 04:08:28;;;;;;;28.52;11.38;;;;;;;6.82;100.00;99794.75;5081700;28;20677;-86
2022/11/30 04:10:55;;;;;;;30.83;12.15;;;;;;;6.79;100.00;99787.25;5083123;28;20025;-84
2022/11/30 04:13:22;;;;;;;28.27;12.02;;;;;;;6.80;100.00;99786.25;5083324;28;20105;-84
2022/11/30 04:15:50;;;;;;;28.00;11.25;;;;;;;6.82;100.00;99789.53;5084317;28;20368;-85
2022/11/30 04:18:16;;;;;;;25.30;10.55;;;;;;;6.77;100.00;99794.41;5084452;28;20024;-85
2022/11/30 04:20:41;;;;;;;31.52;12.27;;;;;;;6.65;100.00;99789.41;5059236;28;20081;-85
2022/11/30 04:23:10;;;;;;;24.58;10.90;;;;;;;6.71;100.00;99794.03;5081246;28;20031;-84
2022/11/30 04:25:40;;;;;;;27.77;11.02;;;;;;;6.55;100.00;99788.69;5079230;28;20082;-84
2022/11/30 04:28:06;;;;;;;25.25;10.68;;;;;;;6.66;100.00;99796.25;5082445;28;20043;-85
2022/11/30 04:30:33;;;;;;;23.00;10.07;;;;;;;6.71;100.00;99793.19;5082219;28;20081;-86
2022/11/30 04:33:00;;;;;;;34.17;12.45;;;;;;;6.64;100.00;99790.38;5078989;28;20032;-84
2022/11/30 04:35:25;;;;;;;27.40;10.82;;;;;;;6.77;100.00;99797.00;5066587;28;20038;-83
2022/11/30 04:37:51;;;;;;;31.35;11.35;;;;;;;6.46;100.00;99800.81;5074143;28;20534;-84
2022/11/30 04:40:16;;;;;;;27.02;11.00;;;;;;;6.50;100.00;99798.75;5077163;28;20512;-84
2022/11/30 04:42:42;;;;;;;28.10;12.25;;;;;;;6.60;100.00;99802.09;5061670;28;20110;-82
2022/11/30 04:45:08;;;;;;;26.25;10.88;;;;;;;6.50;100.00;99806.56;5078321;28;20028;-83
2022/11/30 04:47:34;;;;;;;27.50;9.90;;;;;;;6.21;100.00;99797.97;5076088;28;20047;-83
2022/11/30 04:49:59;;;;;;;23.70;10.48;;;;;;;6.29;100.00;99799.84;5075941;28;20064;-84
2022/11/30 04:52:25;;;;;;;21.77;9.25;;;;;;;6.45;100.00;99804.41;5079371;28;20224;-84
2022/11/30 04:54:51;;;;;;;25.67;10.23;;;;;;;6.48;100.00;99805.88;5083990;28;20498;-83
2022/11/30 04:57:17;;;;;;;25.92;10.13;;;;;;;6.67;100.00;99810.94;5079345;28;20541;-82
2022/11/30 04:59:43;;;;;;;24.23;9.85;;;;;;;6.65;100.00;99809.47;5065898;28;20080;-82
2022/11/30 05:02:09;;;;;;;28.65;11.30;;;;;;;6.61;100.00;99808.13;5079279;28;20173;-83
2022/11/30 05:04:34;;;;;;;30.75;11.82;;;;;;;6.61;100.00;99798.50;5079168;28;20536;-83
2022/11/30 05:07:00;;;;;;;35.10;11.90;;;;;;;6.50;100.00;99819.63;5084514;28;20025;-84
2022/11/30 05:09:25;;;;;;;24.70;10.73;;;;;;;6.40;100.00;99817.88;5083410;28;20413;-83
2022/11/30 05:11:51;;;;;;;27.58;10.82;;;;;;;6.47;100.00;99817.28;5081828;28;20162;-83
2022/11/30 05:14:18;;;;;;;22.33;10.43;;;;;;;6.60;100.00;99809.91;5078885;28;20074;-84
2022/11/30 05:16:46;;;;;;;27.40;10.90;;;;;;;6.63;100.00;99812.22;5081819;28;20162;-83
2022/11/30 05:19:13;;;;;;;26.15;10.75;;;;;;;6.60;100.00;99811.72;5084964;28;20032;-83
2022/11/30 05:21:39;;;;;;;24.80;11.30;;;;;;;6.51;100.00;99809.00;5067213;28;20110;-82
2022/11/30 05:24:05;;;;;;;21.20;10.18;;;;;;;6.65;100.00;99810.28;5079116;28;20162;-83
2022/11/30 05:26:31;;;;;;;24.83;10.43;;;;;;;6.69;100.00;99816.03;5078883;28;20382;-83
2022/11/30 05:28:57;;;;;;;27.45;11.80;;;;;;;6.66;100.00;99814.53;5077855;28;20032;-83
2022/11/30 05:31:22;;;;;;;24.70;10.23;;;;;;;6.63;100.00;99814.81;5078823;28;20055;-84
2022/11/30 05:33:51;;;;;;;27.35;10.10;;;;;;;6.52;100.00;99821.09;5078381;28;20037;-84
2022/11/30 05:36:19;;;;;;;22.00;10.13;;;;;;;6.54;100.00;99803.50;5054283;28;20470;-84
2022/11/30 05:38:45;;;;;;;21.20;9.82;;;;;;;6.46;100.00;99816.47;5084487;28;20028;-82
2022/11/30 05:41:13;;;;;;;27.13;9.93;;;;;;;6.57;100.00;99815.44;5085773;28;20083;-82
2022/11/30 05:43:39;;;;;;;23.15;10.13;;;;;;;6.51;100.00;99818.66;5084874;28;20105;-86
2022/11/30 05:46:08;;;;;;;20.80;9.30;;;;;;;6.60;100.00;99825.56;5069296;28;20029;-85
2022/11/30 05:48:34;;;;;;;20.10;9.43;;;;;;;6.62;100.00;99818.41;5088295;28;20177;-83
2022/11/30 05:51:07;;;;;;;22.73;9.98;;;;;;;6.47;100.00;99832.91;5087029;28;20051;-84
2022/11/30 05:53:33;;;;;;;14.20;6.10;;;;;;;6.41;100.00;99829.94;5084542;28;20040;-82
2022/11/30 05:56:03;;;;;;;21.52;8.10;;;;;;;6.51;100.00;99829.06;5087550;28;20069;-84
2022/11/30 05:58:31;;;;;;;17.42;8.05;;;;;;;6.60;100.00;99833.38;5088260;28;20024;-83
2022/11/30 06:00:57;;;;;;;16.40;7.57;;;;;;;6.34;100.00;99828.91;5062164;28;20024;-84
2022/11/30 06:03:23;;;;;;;16.55;8.07;;;;;;;6.07;100.00;99832.34;5084309;28;20161;-83
2022/11/30 06:05:50;;;;;;;17.98;7.88;;;;;;;6.17;100.00;99835.72;5086828;28;20028;-84
2022/11/30 06:08:16;;;;;;;20.83;7.50;;;;;;;6.33;100.00;99834.25;5073035;28;20036;-84
2022/11/30 06:10:42;;;;;;;18.02;8.20;;;;;;;6.36;100.00;99837.41;5085825;28;20042;-85
2022/11/30 06:13:08;;;;;;;20.20;8.35;;;;;;;6.35;100.00;99835.75;5083854;28;20028;-84
2022/11/30 06:15:38;;;;;;;19.70;7.85;;;;;;;6.34;100.00;99844.56;5086850;28;20116;-84
2022/11/30 06:18:04;;;;;;;18.73;9.05;;;;;;;6.28;100.00;99842.50;5080099;28;20035;-85
2022/11/30 06:20:30;;;;;;;18.63;8.88;;;;;;;6.26;100.00;99847.88;5084704;28;20469;-84
2022/11/30 06:22:57;;;;;;;19.90;8.73;;;;;;;6.21;100.00;99846.69;5069189;28;20051;-84
2022/11/30 06:25:24;;;;;;;22.10;8.85;;;;;;;6.34;100.00;99852.38;5088060;28;20040;-86
2022/11/30 06:27:49;;;;;;;17.83;8.80;;;;;;;6.35;100.00;99851.41;5075428;28;20111;-84
2022/11/30 06:30:15;;;;;;;21.05;9.05;;;;;;;6.28;100.00;99845.13;5086531;28;20144;-84
2022/11/30 06:32:45;;;;;;;21.25;9.27;;;;;;;6.40;100.00;99857.00;5083906;28;20041;-85
2022/11/30 06:35:11;;;;;;;20.10;8.75;;;;;;;6.36;100.00;99852.22;5086541;28;20024;-85
2022/11/30 06:37:36;;;;;;;21.73;9.23;;;;;;;6.18;100.00;99845.16;5083726;28;20379;-82
2022/11/30 06:40:02;;;;;;;23.50;9.27;;;;;;;6.29;100.00;99852.00;5085326;28;20028;-83
2022/11/30 06:42:29;;;;;;;20.05;8.70;;;;;;;6.37;100.00;99859.91;5085314;28;20024;-83
2022/11/30 06:44:55;;;;;;;22.00;8.90;;;;;;;6.40;100.00;99861.41;5062755;28;20623;-84
2022/11/30 06:47:20;;;;;;;24.42;8.50;;;;;;;6.12;100.00;99858.78;5082577;28;20053;-82
2022/11/30 06:49:46;;;;;;;20.02;8.65;;;;;;;6.06;100.00;99862.78;5085350;28;20024;-83
2022/11/30 06:52:12;;;;;;;19.33;8.27;;;;;;;6.18;100.00;99854.78;5090497;28;20497;-84
2022/11/30 06:54:37;;;;;;;21.70;9.10;;;;;;;5.92;100.00;99853.66;5083756;28;20102;-84
2022/11/30 06:57:03;;;;;;;17.88;7.38;;;;;;;5.94;100.00;99861.34;5080231;28;20119;-84
2022/11/30 06:59:29;;;;;;;21.38;8.40;;;;;;;6.16;100.00;99867.16;5082967;28;20397;-82
2022/11/30 07:01:55;;;;;;;26.52;9.25;;;;;;;5.88;100.00;99859.28;5080672;28;20024;-82
2022/11/30 07:04:21;;;;;;;27.58;9.45;;;;;;;5.97;100.00;99861.84;5082733;28;20035;-83
2022/11/30 07:06:46;;;;;;;20.98;8.63;;;;;;;6.18;100.00;99852.19;5086188;28;20061;-86
2022/11/30 07:09:12;;;;;;;25.33;9.68;;;;;;;6.00;100.00;99858.13;5086524;28;20037;-87
2022/11/30 07:11:39;;;;;;;23.58;8.68;;;;;;;6.01;100.00;99852.00;5066852;28;20500;-85
2022/11/30 07:14:04;;;;;;;23.05;10.18;;;;;;;6.16;100.00;99847.09;5082300;28;20032;-83
2022/11/30 07:16:30;;;;;;;28.27;10.48;;;;;;;6.13;100.00;99842.19;5085470;28;20062;-86
2022/11/30 07:18:56;;;;;;;29.50;10.60;;;;;;;5.68;100.00;99841.13;5081084;28;20024;-85
2022/11/30 07:21:22;;;;;;;47.45;13.68;;;;;;;5.31;100.00;99845.34;5084136;28;20036;-87
2022/11/30 07:26:32;;;;;;;25.23;10.23;;;;;;;5.62;100.00;99850.34;5078765;28;20028;-88
2022/11/30 07:28:58;;;;;;;27.15;10.38;;;;;;;5.79;100.00;99848.78;5089801;28;20105;-87
2022/11/30 07:31:29;;;;;;;31.40;10.57;;;;;;;6.08;100.00;99855.66;5071377;28;20379;-87
2022/11/30 07:33:56;;;;;;;30.52;11.63;;;;;;;6.14;100.00;99847.28;5079802;28;20032;-87
2022/11/30 07:36:24;;;;;;;30.65;11.52;;;;;;;6.28;100.00;99852.94;5066442;28;20036;-84
2022/11/30 07:38:50;;;;;;;32.33;13.15;;;;;;;6.22;100.00;99845.72;5092822;28;20031;-84
2022/11/30 07:41:16;;;;;;;31.85;11.88;;;;;;;6.32;100.00;99854.31;5086700;28;20040;-85
2022/11/30 07:43:42;;;;;;;28.75;10.88;;;;;;;6.39;100.00;99863.19;5079400;28;20120;-81
2022/11/30 07:46:12;;;;;;;33.83;11.38;;;;;;;6.53;100.00;99874.09;5082372;28;20020;-82
2022/11/30 07:48:39;;;;;;;30.30;11.32;;;;;;;6.54;100.00;99876.53;5067560;28;20059;-84
2022/11/30 07:51:09;;;;;;;39.95;12.60;;;;;;;6.52;100.00;99877.66;5077576;28;20036;-82
2022/11/30 07:53:35;;;;;;;27.23;11.32;;;;;;;6.47;100.00;99874.66;5087085;28;20067;-82
2022/11/30 07:56:05;;;;;;;26.20;11.70;;;;;;;6.57;100.00;99886.66;5077917;28;20135;-83
2022/11/30 07:58:31;;;;;;;28.70;11.45;;;;;;;6.51;100.00;99881.25;5079503;28;20032;-84
2022/11/30 08:01:07;;;;;;;27.88;11.90;;;;;;;6.59;100.00;99896.16;5079358;28;20500;-82
2022/11/30 08:03:34;;;;;;;26.88;11.82;;;;;;;6.57;100.00;99901.50;5074008;28;20025;-83
2022/11/30 08:06:01;;;;;;;26.95;12.88;;;;;;;6.63;100.00;99887.88;5066058;28;20478;-82
2022/11/30 08:08:35;;;;;;;27.70;12.10;;;;;;;6.61;100.00;99887.19;5060506;28;20074;-85
2022/11/30 08:11:02;;;;;;;31.52;13.63;;;;;;;6.71;100.00;99893.19;5066260;28;20433;-83
2022/11/30 08:13:29;;;;;;;31.70;12.35;;;;;;;6.70;100.00;99901.16;5063285;28;20036;-84
2022/11/30 08:15:55;;;;;;;37.30;13.73;;;;;;;6.75;100.00;99911.16;5085921;28;20032;-88
2022/11/30 08:18:21;;;;;;;30.90;11.93;;;;;;;6.67;100.00;99899.63;5079255;28;20052;-84
2022/11/30 08:20:46;;;;;;;32.90;13.15;;;;;;;6.74;100.00;99901.69;5083680;28;20121;-83
2022/11/30 08:23:12;;;;;;;32.72;12.98;;;;;;;6.67;100.00;99907.47;5058310;28;20081;-84
2022/11/30 08:25:38;;;;;;;29.05;12.52;;;;;;;6.79;100.00;99909.88;5072075;28;20382;-86
2022/11/30 08:28:04;;;;;;;37.42;13.63;;;;;;;6.81;100.00;99907.94;5077666;28;20036;-84
2022/11/30 08:30:30;;;;;;;32.05;13.05;;;;;;;6.86;100.00;99918.75;5061328;28;20028;-85
2022/11/30 08:32:56;;;;;;;35.15;13.20;;;;;;;6.93;100.00;99919.81;5082561;28;20028;-86
2022/11/30 08:35:22;;;;;;;35.65;13.13;;;;;;;6.97;100.00;99923.75;5084357;28;20056;-85
2022/11/30 08:37:50;;;;;;;33.92;13.80;;;;;;;7.07;100.00;99920.25;5061195;28;20023;-85
2022/11/30 08:40:16;;;;;;;34.72;13.05;;;;;;;7.09;100.00;99910.50;5063986;28;20032;-85
2022/11/30 08:42:41;;;;;;;30.88;12.48;;;;;;;7.23;100.00;99925.59;5064579;28;20035;-85
2022/11/30 08:45:08;;;;;;;32.42;13.65;;;;;;;7.34;100.00;99923.75;5066443;28;20051;-86
2022/11/30 08:47:34;;;;;;;26.98;12.35;;;;;;;7.35;100.00;99918.34;5082295;28;20482;-84
2022/11/30 08:50:00;;;;;;;32.65;12.95;;;;;;;7.34;100.00;99929.78;5080441;28;20037;-88
2022/11/30 08:52:26;;;;;;;36.20;13.38;;;;;;;7.37;100.00;99928.66;5087232;28;20032;-88
2022/11/30 08:54:52;;;;;;;36.17;12.98;;;;;;;7.30;100.00;99933.66;5070507;28;20062;-84
2022/11/30 08:57:22;;;;;;;34.13;13.10;;;;;;;7.41;100.00;99924.75;5082655;28;20036;-86
2022/11/30 08:59:48;;;;;;;32.60;13.93;;;;;;;7.33;100.00;99928.13;5073485;28;20108;-83
2022/11/30 09:02:16;;;;;;;36.58;14.13;;;;;;;7.43;100.00;99935.88;5073967;28;20104;-82
2022/11/30 09:04:42;;;;;;;38.13;14.32;;;;;;;7.36;100.00;99938.28;5073947;28;20029;-83
2022/11/30 09:07:08;;;;;;;37.72;13.27;;;;;;;7.29;100.00;99940.69;5078720;28;20394;-82
2022/11/30 09:09:34;;;;;;;39.78;13.38;;;;;;;7.38;100.00;99935.53;5062159;28;20029;-83
2022/11/30 09:12:00;;;;;;;37.20;13.70;;;;;;;7.36;100.00;99932.25;5082279;28;20368;-83
2022/11/30 09:14:26;;;;;;;38.13;13.93;;;;;;;7.37;100.00;99928.66;5081138;28;20093;-84
2022/11/30 09:16:53;;;;;;;41.92;13.98;;;;;;;7.45;100.00;99939.16;5066864;28;20459;-84
2022/11/30 09:19:19;;;;;;;40.58;15.32;;;;;;;7.53;100.00;99939.22;5077229;28;20060;-83
2022/11/30 09:21:44;;;;;;;39.83;13.52;;;;;;;7.54;100.00;99946.09;5079136;28;20115;-83
2022/11/30 09:24:10;;;;;;;41.53;15.77;;;;;;;7.51;100.00;99945.56;5079370;28;20557;-83
2022/11/30 09:26:35;;;;;;;46.65;14.68;;;;;;;7.40;100.00;99939.63;5074472;28;20473;-84
2022/11/30 09:29:02;;;;;;;44.35;14.65;;;;;;;7.59;100.00;99945.66;5078915;28;20038;-82
2022/11/30 09:31:28;;;;;;;47.47;16.65;;;;;;;7.54;100.00;99943.47;5082920;28;20032;-82
2022/11/30 09:33:57;;;;;;;42.60;16.92;;;;;;;7.60;100.00;99944.69;5074760;28;20041;-83
2022/11/30 09:36:26;;;;;;;37.67;14.75;;;;;;;7.73;100.00;99949.50;5073842;28;20150;-84
2022/11/30 09:38:52;;;;;;;46.28;16.73;;;;;;;7.83;100.00;99954.63;5074490;28;20469;-84
2022/11/30 09:41:24;;;;;;;59.95;19.40;;;;;;;7.86;100.00;99962.16;5080918;28;20047;-83
2022/11/30 09:44:02;;;;;;;44.00;16.65;;;;;;;7.90;100.00;99960.06;5079268;28;20020;-88
2022/11/30 09:46:36;;;;;;;41.25;17.88;;;;;;;7.94;100.00;99958.78;5077222;28;20595;-86
2022/11/30 09:49:04;;;;;;;51.15;18.38;;;;;;;8.05;100.00;99961.09;5078230;28;20059;-83
2022/11/30 09:51:40;;;;;;;45.38;17.27;;;;;;;8.11;100.00;99962.28;5078758;28;20029;-86
2022/11/30 09:54:12;;;;;;;47.88;18.13;;;;;;;8.19;100.00;99969.34;5076585;28;20024;-87
2022/11/30 09:56:39;;;;;;;49.60;17.88;;;;;;;8.20;100.00;99976.22;5080881;28;20077;-87
2022/11/30 09:59:14;;;;;;;45.22;18.52;;;;;;;8.24;100.00;99988.00;5085381;28;20035;-87
2022/11/30 10:01:43;;;;;;;49.95;18.25;;;;;;;7.93;100.00;99980.66;5070499;28;20482;-83
2022/11/30 10:04:28;;;;;;;45.40;18.88;;;;;;;8.24;100.00;99982.78;5080323;28;20033;-83
2022/11/30 10:07:22;;;;;;;56.17;19.45;;;;;;;8.38;100.00;99987.44;5081111;28;20040;-83
2022/11/30 10:09:56;;;;;;;45.95;17.92;;;;;;;8.35;100.00;99989.53;5076786;28;20454;-84
2022/11/30 10:12:33;;;;;;;50.42;19.42;;;;;;;8.28;100.00;99984.13;5080948;28;20036;-83
2022/11/30 10:15:29;;;;;;;46.33;19.27;;;;;;;8.41;100.00;99988.94;5060232;28;20051;-83
2022/11/30 10:18:00;;;;;;;45.22;17.70;;;;;;;8.46;100.00;99989.28;5076718;28;20051;-84
2022/11/30 10:20:45;;;;;;;51.05;19.00;;;;;;;8.51;100.00;99991.44;5056703;28;20028;-85
2022/11/30 10:23:52;;;;;;;52.78;20.10;;;;;;;8.64;100.00;99993.63;5080842;28;20054;-88
2022/11/30 10:26:42;;;;;;;48.78;17.77;;;;;;;8.57;100.00;99989.03;5083099;28;20020;-87
2022/11/30 10:29:18;;;;;;;44.72;17.90;;;;;;;8.56;100.00;99991.78;5081953;28;20524;-88
2022/11/30 10:31:46;;;;;;;50.08;19.75;;;;;;;8.59;100.00;99981.00;5066054;28;20136;-88
2022/11/30 10:34:23;;;;;;;54.90;20.73;;;;;;;8.51;100.00;99978.38;5081169;28;20035;-90
2022/11/30 10:37:20;;;;;;;47.78;19.90;;;;;;;8.70;100.00;99982.50;5085394;28;20062;-88
2022/11/30 10:40:04;;;;;;;54.53;20.73;;;;;;;8.76;100.00;99981.06;5066778;28;20119;-88
2022/11/30 10:42:36;;;;;;;50.25;20.50;;;;;;;8.70;100.00;99983.34;5081142;28;20509;-90
2022/11/30 10:45:12;;;;;;;52.17;19.92;;;;;;;8.66;100.00;99986.44;5085107;28;20047;-87
2022/11/30 10:48:04;;;;;;;56.25;20.98;;;;;;;8.73;100.00;99989.25;5083228;28;20031;-87
2022/11/30 10:50:30;;;;;;;50.55;20.52;;;;;;;8.69;100.00;99996.59;5076741;28;20044;-87
2022/11/30 10:52:59;;;;;;;50.83;20.58;;;;;;;8.53;100.00;100007.81;5081585;28;20074;-87
2022/11/30 10:55:57;;;;;;;54.55;20.48;;;;;;;8.60;100.00;99998.34;5083710;28;20029;-88
2022/11/30 10:58:32;;;;;;;52.38;19.60;;;;;;;8.62;100.00;100006.84;5082331;28;20040;-89
2022/11/30 11:01:04;;;;;;;52.50;20.42;;;;;;;8.56;100.00;100002.25;5083152;28;20031;-88
2022/11/30 11:03:36;;;;;;;56.80;20.65;;;;;;;8.63;100.00;100012.94;5079799;28;20032;-88
2022/11/30 11:06:08;;;;;;;50.83;18.83;;;;;;;8.69;100.00;100020.97;5084251;28;20115;-89
2022/11/30 11:08:34;;;;;;;48.08;19.77;;;;;;;8.73;100.00;100016.22;5067098;28;20028;-87
2022/11/30 11:11:00;;;;;;;49.63;19.45;;;;;;;8.68;100.00;100013.25;5063475;28;20035;-87
2022/11/30 11:13:40;;;;;;;46.20;19.13;;;;;;;8.74;100.00;100017.84;5075667;28;20032;-90
2022/11/30 11:16:11;;;;;;;50.58;19.67;;;;;;;8.80;100.00;100019.03;5085297;28;20040;-87
2022/11/30 11:18:51;;;;;;;50.97;19.20;;;;;;;8.87;100.00;100022.66;5084849;28;20107;-86
2022/11/30 11:21:20;;;;;;;52.10;20.00;;;;;;;8.79;100.00;100020.00;5074554;28;20033;-86
2022/11/30 11:23:51;;;;;;;55.33;19.35;;;;;;;8.75;100.00;100027.38;5079212;28;20040;-85
2022/11/30 11:26:28;;;;;;;45.30;19.48;;;;;;;8.81;100.00;100031.13;5079881;28;20504;-88
2022/11/30 11:28:58;;;;;;;53.88;20.45;;;;;;;8.75;100.00;100026.53;5074421;28;20032;-87